Time;durP1;ratioP1;P1;durP2;ratioP2;P2;SDS_P1;SDS_P2;PMS_P1;PMS_P2;Temp;Humidity;BMP_temperature;BMP_pressure;BME280_temperature;BME280_humidity;BME280_pressure;Samples;Min_cycle;Max_cycle;Signal;HPM_P1;HPM_P2
2023/07/19 00:00:32;;;;;;;4.97;4.10;;;;;;;22.35;53.58;94971.13;5066186;28;20457;-79
2023/07/19 00:02:58;;;;;;;5.80;4.13;;;;;;;22.27;54.04;94952.78;5069771;28;20028;-79
2023/07/19 00:05:23;;;;;;;7.22;4.72;;;;;;;22.27;53.64;94952.78;5068026;28;20032;-79
2023/07/19 00:07:49;;;;;;;5.38;4.00;;;;;;;22.27;54.17;94966.81;5073009;28;20033;-78
2023/07/19 00:10:14;;;;;;;5.35;4.07;;;;;;;22.19;53.95;94947.66;5064565;28;20028;-78
2023/07/19 00:12:40;;;;;;;6.70;3.88;;;;;;;22.18;53.71;94949.47;5067663;28;20048;-79
2023/07/19 00:15:06;;;;;;;5.63;4.00;;;;;;;22.05;54.21;94934.31;5052323;28;20367;-79
2023/07/19 00:17:31;;;;;;;4.55;3.83;;;;;;;22.17;53.91;94941.69;5052600;28;20032;-78
2023/07/19 00:19:56;;;;;;;5.18;4.07;;;;;;;22.19;54.09;94955.59;5069460;28;20480;-78
2023/07/19 00:22:22;;;;;;;6.80;4.10;;;;;;;22.06;54.32;94943.06;5069474;28;20032;-78
2023/07/19 00:24:47;;;;;;;5.30;3.83;;;;;;;22.14;54.71;94948.19;5069233;28;20039;-78
2023/07/19 00:27:13;;;;;;;5.30;3.92;;;;;;;22.07;54.82;94958.75;5052499;28;20552;-79
2023/07/19 00:29:38;;;;;;;5.55;4.15;;;;;;;21.91;54.46;94937.09;5062356;28;20442;-78
2023/07/19 00:32:04;;;;;;;7.85;4.40;;;;;;;21.84;55.41;94944.94;5069253;28;20029;-79
2023/07/19 00:34:29;;;;;;;5.45;3.95;;;;;;;21.91;54.68;94937.88;5057948;28;20054;-79
2023/07/19 00:36:55;;;;;;;5.60;4.22;;;;;;;21.94;55.78;94957.84;5069321;28;20078;-78
2023/07/19 00:39:20;;;;;;;5.97;4.38;;;;;;;21.82;55.55;94958.38;5064531;28;20029;-78
2023/07/19 00:41:46;;;;;;;6.18;4.40;;;;;;;21.83;56.25;94967.94;5050770;28;20056;-78
2023/07/19 00:44:11;;;;;;;7.20;4.63;;;;;;;21.72;56.42;94965.81;5074414;28;20024;-79
2023/07/19 00:46:36;;;;;;;7.68;4.80;;;;;;;21.46;57.12;94939.22;5077803;28;20036;-79
2023/07/19 00:49:02;;;;;;;8.63;4.70;;;;;;;21.61;56.71;94969.00;5068183;28;20035;-79
2023/07/19 00:51:27;;;;;;;7.75;4.65;;;;;;;21.41;57.02;94942.41;5057531;28;20083;-78
2023/07/19 00:53:53;;;;;;;6.95;4.93;;;;;;;21.67;56.55;94962.94;5101333;28;20461;-79
2023/07/19 00:56:19;;;;;;;7.57;4.47;;;;;;;21.49;57.16;94959.97;5051457;28;20060;-79
2023/07/19 00:58:44;;;;;;;8.10;4.80;;;;;;;21.50;57.15;94965.03;5045719;28;20750;-78
2023/07/19 01:01:09;;;;;;;7.38;4.65;;;;;;;21.50;57.05;94946.53;5035474;28;20056;-79
2023/07/19 01:03:35;;;;;;;5.72;4.47;;;;;;;21.46;57.71;94939.22;5051063;28;20430;-79
2023/07/19 01:06:01;;;;;;;8.18;4.65;;;;;;;21.47;57.51;94940.81;5076463;28;20475;-79
2023/07/19 01:08:26;;;;;;;7.95;5.20;;;;;;;21.34;58.21;94941.50;5064694;28;20090;-79
2023/07/19 01:10:52;;;;;;;6.05;5.13;;;;;;;21.35;57.67;94932.56;5069140;28;20090;-79
2023/07/19 01:13:17;;;;;;;9.77;5.30;;;;;;;21.30;58.29;94938.41;5072953;28;20039;-79
2023/07/19 01:15:43;;;;;;;5.65;5.00;;;;;;;21.36;58.40;94952.69;5071382;28;20028;-78
2023/07/19 01:18:08;;;;;;;8.68;4.88;;;;;;;21.06;58.71;94928.25;5070502;28;20063;-79
2023/07/19 01:20:34;;;;;;;14.23;5.22;;;;;;;21.11;58.97;94934.59;5051681;28;20033;-78
2023/07/19 01:22:59;;;;;;;7.18;4.88;;;;;;;21.02;59.54;94937.56;5055044;28;20430;-79
2023/07/19 01:25:25;;;;;;;11.40;5.63;;;;;;;21.04;59.46;94940.84;5085529;28;20623;-79
2023/07/19 01:27:50;;;;;;;6.13;5.35;;;;;;;20.89;59.70;94931.13;5051171;28;20029;-79
2023/07/19 01:30:16;;;;;;;6.03;5.03;;;;;;;21.05;59.61;94938.00;5079483;28;20032;-79
2023/07/19 01:32:41;;;;;;;6.10;5.07;;;;;;;21.12;59.05;94961.84;5086938;28;20028;-79
2023/07/19 01:35:07;;;;;;;8.13;5.30;;;;;;;20.88;59.37;94941.88;5085503;28;20032;-78
2023/07/19 01:37:32;;;;;;;8.02;5.03;;;;;;;20.84;59.40;94952.00;5081372;28;20025;-79
2023/07/19 01:40:03;;;;;;;6.75;4.85;;;;;;;20.86;59.51;94949.16;5067239;28;20028;-79
2023/07/19 01:42:28;;;;;;;;;;;;;;;20.89;59.50;94954.88;5071581;28;20044;-79
2023/07/19 01:44:54;;;;;;;7.30;4.90;;;;;;;20.71;60.28;94946.59;5065689;28;20321;-78
2023/07/19 01:47:19;;;;;;;8.57;5.45;;;;;;;20.64;60.24;94937.75;5075701;28;20293;-78
2023/07/19 01:49:45;;;;;;;5.78;4.95;;;;;;;20.77;60.41;94952.94;5068808;28;20442;-78
2023/07/19 01:52:10;;;;;;;6.35;4.95;;;;;;;20.72;59.76;94930.53;5053504;28;20510;-78
2023/07/19 01:54:35;;;;;;;6.65;4.97;;;;;;;20.75;59.84;94929.34;5098156;27;20078;-78
2023/07/19 01:57:01;;;;;;;6.10;4.95;;;;;;;20.82;59.97;94947.91;5055068;28;20040;-79
2023/07/19 01:59:26;;;;;;;6.20;5.03;;;;;;;20.89;59.83;94954.88;5070712;28;20032;-78
2023/07/19 02:01:53;;;;;;;5.65;5.00;;;;;;;20.74;59.90;94927.72;5070477;28;20028;-78
2023/07/19 02:04:18;;;;;;;5.82;4.93;;;;;;;20.81;59.85;94936.56;5044642;28;20471;-79
2023/07/19 02:06:43;;;;;;;6.72;5.43;;;;;;;20.74;60.09;94944.38;5091019;28;20036;-79
2023/07/19 02:09:09;;;;;;;8.25;5.10;;;;;;;20.79;60.07;94949.09;5045020;28;20041;-78
2023/07/19 02:11:35;;;;;;;6.88;5.15;;;;;;;20.57;60.38;94927.13;5035689;28;20036;-79
2023/07/19 02:14:00;;;;;;;6.35;5.20;;;;;;;20.71;60.08;94941.31;5051710;28;20051;-79
2023/07/19 02:16:26;;;;;;;6.00;5.00;;;;;;;20.78;59.64;94941.38;5035464;28;20395;-78
2023/07/19 02:18:51;;;;;;;5.50;4.97;;;;;;;20.82;59.61;94947.91;5053362;28;20257;-78
2023/07/19 02:21:17;;;;;;;5.57;5.05;;;;;;;20.65;59.90;94916.47;5068654;28;20471;-77
2023/07/19 02:23:43;;;;;;;7.25;5.38;;;;;;;20.47;60.25;94887.00;5050542;28;20392;-78
2023/07/19 02:26:08;;;;;;;5.55;4.95;;;;;;;20.57;59.77;94897.31;5051662;28;20255;-79
2023/07/19 02:28:34;;;;;;;6.45;5.10;;;;;;;20.80;59.63;94919.06;5085548;28;20118;-79
2023/07/19 02:30:59;;;;;;;6.32;5.32;;;;;;;20.71;59.52;94904.34;5084357;28;20033;-79
2023/07/19 02:33:25;;;;;;;6.10;4.93;;;;;;;20.69;59.42;94906.34;5052752;28;20025;-78
2023/07/19 02:35:56;;;;;;;5.85;4.85;;;;;;;20.69;59.59;94907.16;5055941;28;20020;-78
2023/07/19 02:38:22;;;;;;;5.85;4.78;;;;;;;20.73;59.17;94911.09;5055317;28;20561;-79
2023/07/19 02:40:47;;;;;;;7.63;4.55;;;;;;;20.67;59.49;94918.91;5071635;28;20024;-79
2023/07/19 02:43:13;;;;;;;5.65;4.65;;;;;;;20.65;59.33;94905.91;5054802;28;20033;-79
2023/07/19 02:45:39;;;;;;;6.57;5.22;;;;;;;20.55;59.78;94889.56;5059985;28;20036;-78
2023/07/19 02:48:04;;;;;;;6.53;4.78;;;;;;;20.61;59.74;94912.56;5084819;28;20041;-78
2023/07/19 02:50:30;;;;;;;7.47;5.07;;;;;;;20.45;60.29;94894.31;5051378;28;20033;-78
2023/07/19 02:52:55;;;;;;;6.20;5.00;;;;;;;20.39;60.35;94884.47;5034975;28;20032;-78
2023/07/19 02:55:20;;;;;;;5.88;5.00;;;;;;;20.36;60.18;94880.38;5064326;28;20044;-79
2023/07/19 02:57:46;;;;;;;5.45;4.70;;;;;;;20.59;59.91;94911.09;5052981;28;20265;-78
2023/07/19 03:00:12;;;;;;;9.68;5.22;;;;;;;20.46;59.86;94903.84;5052502;28;20021;-79
2023/07/19 03:02:37;;;;;;;8.15;4.97;;;;;;;20.47;60.02;94902.84;5069282;28;20075;-78
2023/07/19 03:05:04;;;;;;;5.95;4.78;;;;;;;20.47;60.35;94897.56;5054518;28;20032;-78
2023/07/19 03:07:29;;;;;;;6.53;5.30;;;;;;;20.47;60.13;94903.66;5054676;28;20024;-78
2023/07/19 03:09:55;;;;;;;6.57;4.93;;;;;;;20.39;60.40;94898.47;5054277;28;20089;-79
2023/07/19 03:12:20;;;;;;;6.22;5.05;;;;;;;20.32;60.05;94887.03;5050396;28;20033;-78
2023/07/19 03:14:46;;;;;;;5.72;5.10;;;;;;;20.18;60.43;94885.25;5084500;28;20487;-78
2023/07/19 03:17:11;;;;;;;6.90;4.93;;;;;;;20.20;60.64;94891.19;5052430;28;20032;-79
2023/07/19 03:19:37;;;;;;;8.18;4.95;;;;;;;20.26;60.64;94911.53;5070437;28;20045;-78
2023/07/19 03:22:02;;;;;;;7.57;4.75;;;;;;;20.31;60.70;94893.34;5069411;28;20032;-78
2023/07/19 03:24:28;;;;;;;5.50;4.82;;;;;;;20.29;60.97;94905.88;5069920;28;20039;-78
2023/07/19 03:26:53;;;;;;;6.88;4.88;;;;;;;20.34;61.74;94914.06;5070781;28;20028;-78
2023/07/19 03:29:19;;;;;;;6.22;5.20;;;;;;;20.26;61.38;94919.44;5070135;28;20414;-79
2023/07/19 03:31:44;;;;;;;5.78;4.82;;;;;;;20.15;61.44;94893.53;5069679;28;20032;-78
2023/07/19 03:34:10;;;;;;;6.03;5.28;;;;;;;20.36;61.22;94909.41;5071316;28;20025;-79
2023/07/19 03:36:35;;;;;;;8.05;4.88;;;;;;;20.22;61.96;94904.97;5053918;28;20032;-79
2023/07/19 03:39:00;;;;;;;6.10;4.88;;;;;;;19.98;62.26;94900.84;5053699;28;20028;-79
2023/07/19 03:41:26;;;;;;;6.45;4.45;;;;;;;20.19;62.46;94910.63;5053854;28;20107;-79
2023/07/19 03:43:51;;;;;;;6.03;5.03;;;;;;;20.00;62.43;94894.38;5071491;28;20032;-78
2023/07/19 03:46:17;;;;;;;6.78;5.15;;;;;;;20.17;62.37;94891.50;5053780;28;20040;-78
2023/07/19 03:48:42;;;;;;;5.90;5.07;;;;;;;19.96;63.04;94911.53;5070248;28;20032;-78
2023/07/19 03:51:08;;;;;;;8.60;5.38;;;;;;;19.95;63.55;94888.84;5053684;28;20032;-79
2023/07/19 03:53:33;;;;;;;9.35;5.57;;;;;;;19.95;63.44;94875.66;5053562;28;20486;-78
2023/07/19 03:55:59;;;;;;;8.02;5.85;;;;;;;19.83;64.12;94895.53;5070157;28;20036;-79
2023/07/19 03:58:25;;;;;;;9.20;5.55;;;;;;;19.37;65.96;94890.41;5070105;28;20059;-78
2023/07/19 04:00:55;;;;;;;10.30;6.05;;;;;;;19.71;64.55;94889.91;5053537;28;20471;-78
2023/07/19 04:03:20;;;;;;;8.85;5.40;;;;;;;19.80;63.50;94880.09;5053422;28;20078;-79
2023/07/19 04:05:46;;;;;;;7.78;5.18;;;;;;;19.69;63.08;94835.75;5069922;28;20457;-78
2023/07/19 04:08:13;;;;;;;7.43;5.28;;;;;;;19.87;63.10;94875.75;5069918;28;20116;-78
2023/07/19 04:10:38;;;;;;;8.75;5.13;;;;;;;20.25;62.03;94883.50;5070253;28;20025;-79
2023/07/19 04:13:04;;;;;;;6.35;5.18;;;;;;;21.03;59.24;94887.19;5053084;28;20513;-79
2023/07/19 04:15:30;;;;;;;8.68;6.00;;;;;;;21.28;59.71;94892.88;5069915;28;20036;-78
2023/07/19 04:17:55;;;;;;;9.85;6.18;;;;;;;22.01;57.61;94876.72;5052958;28;20512;-78
2023/07/19 04:20:22;;;;;;;6.35;5.03;;;;;;;22.66;53.66;94878.00;5069279;28;20024;-78
2023/07/19 04:22:49;;;;;;;7.15;5.32;;;;;;;23.65;51.85;94876.44;5069865;28;20052;-78
2023/07/19 04:25:14;;;;;;;5.90;4.60;;;;;;;24.47;48.95;94852.97;5068416;28;20450;-79
2023/07/19 04:27:39;;;;;;;6.78;4.97;;;;;;;25.37;47.24;94869.56;5073756;28;20032;-79
2023/07/19 04:30:06;;;;;;;6.25;5.18;;;;;;;25.54;46.41;94847.72;5052689;28;20491;-79
2023/07/19 04:32:32;;;;;;;9.55;5.03;;;;;;;26.18;44.87;94840.34;5042205;28;20052;-79
2023/07/19 04:34:58;;;;;;;6.15;4.78;;;;;;;26.75;43.71;94840.84;5053854;28;20044;-79
2023/07/19 04:37:24;;;;;;;5.22;4.25;;;;;;;26.58;43.93;94848.66;5067945;28;20415;-79
2023/07/19 04:39:50;;;;;;;6.50;4.82;;;;;;;26.62;43.78;94844.50;5070495;28;20025;-79
2023/07/19 04:42:16;;;;;;;6.80;5.18;;;;;;;27.61;42.33;94847.50;5082564;28;20144;-80
2023/07/19 04:44:41;;;;;;;5.97;5.35;;;;;;;27.99;41.23;94859.56;5034177;28;20062;-79
2023/07/19 04:47:08;;;;;;;5.13;4.55;;;;;;;28.30;40.36;94849.50;5050055;28;20044;-79
2023/07/19 04:49:34;;;;;;;6.03;5.13;;;;;;;29.05;39.13;94858.44;5049409;28;20020;-76
2023/07/19 04:51:59;;;;;;;7.18;4.95;;;;;;;29.08;39.10;94850.75;5040402;28;20051;-79
2023/07/19 04:54:25;;;;;;;6.05;4.95;;;;;;;29.08;39.67;94850.75;5054096;28;20020;-77
2023/07/19 04:56:50;;;;;;;7.28;4.95;;;;;;;28.59;40.53;94852.25;5069549;28;20037;-77
2023/07/19 04:59:16;;;;;;;6.22;5.07;;;;;;;28.65;40.38;94856.66;5063836;28;20123;-75
2023/07/19 05:01:41;;;;;;;7.20;5.13;;;;;;;28.18;41.34;94857.56;5049628;28;20048;-75
2023/07/19 05:04:06;;;;;;;6.20;4.85;;;;;;;28.19;41.26;94863.69;5056799;28;20101;-76
2023/07/19 05:06:32;;;;;;;7.03;4.70;;;;;;;27.98;41.67;94852.59;5049229;28;20029;-76
2023/07/19 05:08:57;;;;;;;5.82;4.80;;;;;;;27.65;42.95;94868.38;5092559;28;20406;-77
2023/07/19 05:11:25;;;;;;;6.97;5.07;;;;;;;27.64;42.14;94864.91;5060713;28;20040;-76
2023/07/19 05:13:51;;;;;;;8.57;5.30;;;;;;;27.66;43.25;94865.47;5054598;28;20053;-78
2023/07/19 05:16:16;;;;;;;9.18;5.97;;;;;;;27.60;42.28;94861.88;5076382;28;20129;-77
2023/07/19 05:18:42;;;;;;;13.73;5.43;;;;;;;27.07;43.48;94876.03;5039217;28;20044;-77
2023/07/19 05:21:07;;;;;;;10.68;6.65;;;;;;;26.85;44.12;94877.59;5092810;28;20040;-77
2023/07/19 05:23:32;;;;;;;8.98;5.57;;;;;;;26.84;44.30;94870.66;5056758;28;20483;-77
2023/07/19 05:25:58;;;;;;;7.63;5.15;;;;;;;26.98;43.96;94845.44;5070482;28;20040;-72
2023/07/19 05:28:23;;;;;;;9.77;5.80;;;;;;;26.70;44.65;94844.19;5067343;28;20037;-77
2023/07/19 05:30:49;;;;;;;6.85;5.80;;;;;;;26.59;44.73;94849.47;5055667;28;20031;-77
2023/07/19 05:33:15;;;;;;;17.42;6.05;;;;;;;26.68;45.12;94843.59;5055265;28;20051;-77
2023/07/19 05:35:40;;;;;;;10.73;5.28;;;;;;;27.18;43.98;94856.63;5054772;28;20082;-77
2023/07/19 05:38:06;;;;;;;7.00;5.53;;;;;;;27.38;43.68;94842.97;5068719;28;20024;-76
2023/07/19 05:40:31;;;;;;;7.90;5.38;;;;;;;27.23;43.46;94839.94;5065472;28;20020;-77
2023/07/19 05:42:57;;;;;;;7.85;5.78;;;;;;;27.46;43.32;94855.16;5068852;28;20490;-75
2023/07/19 05:45:22;;;;;;;7.40;5.22;;;;;;;27.51;43.39;94822.44;5053386;28;20027;-76
2023/07/19 05:47:47;;;;;;;9.50;5.88;;;;;;;27.55;43.73;94845.78;5066064;28;20036;-76
2023/07/19 05:50:13;;;;;;;6.00;5.13;;;;;;;27.94;42.48;94851.44;5050741;28;20033;-76
2023/07/19 05:52:39;;;;;;;7.97;5.50;;;;;;;27.71;43.26;94838.91;5066536;28;20033;-76
2023/07/19 05:55:06;;;;;;;12.45;6.20;;;;;;;27.55;43.51;94824.44;5070101;28;20024;-76
2023/07/19 05:57:31;;;;;;;12.70;5.72;;;;;;;27.52;43.48;94832.06;5069511;28;20033;-76
2023/07/19 06:00:01;;;;;;;10.05;5.60;;;;;;;27.60;43.56;94835.19;5069923;28;20110;-76
2023/07/19 06:02:27;;;;;;;16.67;6.30;;;;;;;27.53;43.88;94839.84;5065943;28;20501;-76
2023/07/19 06:04:52;;;;;;;13.23;5.97;;;;;;;27.39;44.57;94852.59;5063148;28;20024;-76
2023/07/19 06:07:18;;;;;;;11.77;6.30;;;;;;;27.22;44.19;94821.50;5075004;28;20032;-76
2023/07/19 06:09:43;;;;;;;14.55;7.38;;;;;;;27.22;44.71;94843.66;5070137;28;20035;-76
2023/07/19 06:12:09;;;;;;;12.55;6.55;;;;;;;27.35;44.74;94837.28;5090664;28;20040;-72
2023/07/19 06:14:34;;;;;;;9.70;6.00;;;;;;;27.58;44.26;94828.47;5077732;28;20032;-74
2023/07/19 06:17:00;;;;;;;13.13;5.90;;;;;;;27.42;43.93;94818.53;5067440;28;20036;-73
2023/07/19 06:19:25;;;;;;;9.05;6.07;;;;;;;27.46;44.39;94822.34;5061428;28;20060;-76
2023/07/19 06:21:51;;;;;;;14.80;6.68;;;;;;;27.45;44.79;94826.06;5081084;28;20032;-76
2023/07/19 06:24:16;;;;;;;10.82;5.88;;;;;;;27.36;44.99;94823.72;5070111;28;20020;-77
2023/07/19 06:26:42;;;;;;;9.20;5.80;;;;;;;27.69;44.59;94821.50;5055248;28;20464;-77
2023/07/19 06:29:07;;;;;;;11.50;5.97;;;;;;;27.95;44.29;94831.72;5055136;28;20032;-76
2023/07/19 06:31:32;;;;;;;9.27;6.40;;;;;;;27.97;44.33;94834.97;5070891;28;20040;-76
2023/07/19 06:33:58;;;;;;;12.63;6.05;;;;;;;27.67;44.88;94832.44;5071707;28;20556;-76
2023/07/19 06:36:24;;;;;;;10.68;5.85;;;;;;;27.58;44.93;94818.63;5070966;28;20029;-77
2023/07/19 06:38:49;;;;;;;12.02;6.20;;;;;;;27.95;44.82;94828.25;5054279;28;20499;-76
2023/07/19 06:41:15;;;;;;;12.15;5.95;;;;;;;27.86;43.96;94809.13;5054052;28;20106;-76
2023/07/19 06:43:40;;;;;;;10.27;5.75;;;;;;;27.87;44.60;94826.75;5054680;28;20418;-77
2023/07/19 06:46:06;;;;;;;10.45;5.82;;;;;;;27.89;44.94;94826.50;5071554;28;20040;-76
2023/07/19 06:48:31;;;;;;;10.23;5.72;;;;;;;27.99;44.60;94824.06;5053422;28;20029;-77
2023/07/19 06:50:56;;;;;;;12.77;5.90;;;;;;;28.45;43.08;94804.44;5053708;28;20055;-77
2023/07/19 06:53:22;;;;;;;8.85;5.78;;;;;;;28.70;43.76;94809.44;5069270;28;20450;-76
2023/07/19 06:55:47;;;;;;;12.32;6.03;;;;;;;28.72;42.89;94820.72;5070384;28;20546;-76
2023/07/19 06:58:13;;;;;;;8.43;5.63;;;;;;;28.63;43.16;94818.66;5053912;28;20025;-77
2023/07/19 07:00:38;;;;;;;7.93;5.93;;;;;;;28.49;42.37;94818.94;5053858;28;20043;-76
2023/07/19 07:03:04;;;;;;;10.98;5.90;;;;;;;28.34;42.60;94818.63;5053641;28;20037;-77
2023/07/19 07:05:29;;;;;;;7.57;5.28;;;;;;;28.37;42.60;94820.00;5054081;28;20024;-77
2023/07/19 07:07:55;;;;;;;11.60;6.25;;;;;;;28.78;41.71;94824.28;5071307;28;20054;-76
2023/07/19 07:10:20;;;;;;;7.55;4.82;;;;;;;28.73;39.05;94800.16;5070462;28;20085;-76
2023/07/19 07:12:46;;;;;;;6.45;4.70;;;;;;;29.04;39.80;94825.56;5054453;28;20031;-76
2023/07/19 07:15:11;;;;;;;8.50;4.82;;;;;;;29.25;38.98;94810.63;5054266;28;20025;-76
2023/07/19 07:17:38;;;;;;;9.40;5.30;;;;;;;29.33;39.11;94806.75;5072318;28;20379;-77
2023/07/19 07:20:06;;;;;;;6.15;4.97;;;;;;;29.57;39.69;94836.81;5070949;28;20040;-76
2023/07/19 07:22:32;;;;;;;6.18;5.25;;;;;;;29.22;40.14;94826.38;5070890;28;20032;-76
2023/07/19 07:24:57;;;;;;;6.75;4.88;;;;;;;29.17;39.76;94829.78;5070727;28;20067;-77
2023/07/19 07:27:23;;;;;;;6.88;4.80;;;;;;;29.54;39.52;94813.22;5054255;28;20555;-77
2023/07/19 07:29:48;;;;;;;6.03;4.80;;;;;;;29.74;39.69;94821.56;5037416;28;20024;-76
2023/07/19 07:32:13;;;;;;;6.75;5.03;;;;;;;29.40;39.04;94777.97;5071692;28;20040;-77
2023/07/19 07:34:39;;;;;;;6.68;5.32;;;;;;;29.74;38.94;94816.22;5071873;28;20028;-77
2023/07/19 07:37:05;;;;;;;7.35;4.68;;;;;;;29.58;38.53;94809.81;5070554;28;20040;-77
2023/07/19 07:39:30;;;;;;;11.18;5.30;;;;;;;29.26;38.96;94806.13;5053903;28;20505;-77
2023/07/19 07:41:56;;;;;;;9.15;5.00;;;;;;;29.70;39.42;94815.09;5070461;28;20033;-77
2023/07/19 07:44:21;;;;;;;10.32;5.43;;;;;;;29.68;38.87;94819.88;5053678;28;20024;-77
2023/07/19 07:46:47;;;;;;;10.27;5.05;;;;;;;29.83;39.14;94795.19;5070530;28;20181;-77
2023/07/19 07:49:12;;;;;;;9.35;5.00;;;;;;;29.83;38.48;94792.50;5053574;28;20465;-77
2023/07/19 07:51:38;;;;;;;10.05;5.30;;;;;;;30.23;37.10;94802.97;5071653;28;20037;-77
2023/07/19 07:54:03;;;;;;;10.35;4.68;;;;;;;30.33;36.96;94788.88;5070105;28;20024;-77
2023/07/19 07:56:28;;;;;;;10.27;5.93;;;;;;;30.79;36.25;94788.53;5053648;28;20395;-77
2023/07/19 07:58:54;;;;;;;9.30;4.38;;;;;;;30.39;35.18;94770.97;5070101;28;20406;-77
2023/07/19 08:01:19;;;;;;;8.27;4.65;;;;;;;30.75;36.06;94792.78;5071404;28;20048;-77
2023/07/19 08:03:45;;;;;;;7.10;4.70;;;;;;;31.18;35.20;94786.50;5053210;28;20086;-77
2023/07/19 08:06:10;;;;;;;8.40;5.35;;;;;;;31.22;33.93;94755.38;5053307;28;20028;-77
2023/07/19 08:08:36;;;;;;;7.85;4.55;;;;;;;31.30;34.75;94787.09;5069957;28;20028;-77
2023/07/19 08:11:09;;;;;;;7.35;4.30;;;;;;;30.80;35.02;94785.63;5071242;28;20037;-76
2023/07/19 08:13:34;;;;;;;10.32;5.00;;;;;;;30.55;35.07;94771.94;5071112;28;20025;-77
2023/07/19 08:16:00;;;;;;;6.18;4.00;;;;;;;30.79;33.49;94759.06;5069964;28;20093;-77
2023/07/19 08:18:25;;;;;;;7.40;4.40;;;;;;;30.98;34.14;94760.31;5052982;28;20063;-77
2023/07/19 08:20:52;;;;;;;11.85;4.78;;;;;;;31.20;34.92;94767.44;5069703;28;20028;-77
2023/07/19 08:23:17;;;;;;;6.75;4.60;;;;;;;30.99;34.25;94756.56;5053008;28;20032;-77
2023/07/19 08:25:42;;;;;;;8.15;4.60;;;;;;;30.94;34.37;94775.28;5069763;28;20487;-77
2023/07/19 08:28:08;;;;;;;7.70;4.75;;;;;;;30.90;33.71;94766.16;5069673;28;20024;-77
2023/07/19 08:30:33;;;;;;;8.85;4.70;;;;;;;30.86;33.58;94741.69;5069791;28;20074;-77
2023/07/19 08:32:59;;;;;;;11.52;4.80;;;;;;;31.24;33.52;94749.78;5069764;28;20029;-77
2023/07/19 08:35:24;;;;;;;8.23;4.97;;;;;;;31.20;33.37;94752.16;5069790;28;20028;-77
2023/07/19 08:37:49;;;;;;;6.75;4.57;;;;;;;31.61;33.44;94772.03;5069803;28;20036;-77
2023/07/19 08:40:16;;;;;;;6.68;4.47;;;;;;;31.59;33.94;94750.03;5069523;28;20090;-78
2023/07/19 08:42:44;;;;;;;7.35;4.47;;;;;;;31.66;33.32;94765.91;5069698;28;20040;-77
2023/07/19 08:45:10;;;;;;;6.80;4.97;;;;;;;31.39;33.11;94753.38;5069506;28;20081;-77
2023/07/19 08:47:39;;;;;;;7.57;4.53;;;;;;;31.55;31.74;94758.84;5069693;28;20482;-77
2023/07/19 08:50:05;;;;;;;6.75;4.07;;;;;;;31.65;31.19;94761.59;5069435;28;20421;-77
2023/07/19 08:52:31;;;;;;;5.95;4.20;;;;;;;31.69;30.72;94743.09;5069549;28;20387;-77
2023/07/19 08:54:56;;;;;;;5.65;4.28;;;;;;;31.69;30.42;94746.59;5052661;28;20061;-77
2023/07/19 08:57:22;;;;;;;5.90;4.10;;;;;;;31.66;30.82;94749.00;5069617;28;20036;-77
2023/07/19 08:59:48;;;;;;;5.15;3.92;;;;;;;31.07;29.66;94729.28;5052868;28;20505;-78
2023/07/19 09:02:13;;;;;;;7.63;4.15;;;;;;;31.01;30.44;94738.34;5069406;28;20072;-78
2023/07/19 09:04:39;;;;;;;6.10;4.18;;;;;;;31.34;30.28;94736.41;5069472;28;20033;-78
2023/07/19 09:07:05;;;;;;;6.13;3.75;;;;;;;31.24;28.37;94726.44;5069373;28;20110;-78
2023/07/19 09:09:31;;;;;;;6.93;4.25;;;;;;;31.54;29.32;94717.78;5052637;28;20555;-77
2023/07/19 09:11:56;;;;;;;7.47;4.32;;;;;;;31.72;30.17;94727.25;5069254;28;20031;-78
2023/07/19 09:14:37;;;;;;;5.63;4.55;;;;;;;31.45;30.95;94716.66;5069168;28;20024;-77
2023/07/19 09:17:02;;;;;;;7.30;4.70;;;;;;;31.70;30.07;94710.59;5069346;28;20036;-78
2023/07/19 09:19:28;;;;;;;6.22;4.43;;;;;;;31.58;29.75;94726.13;5069324;28;20052;-78
2023/07/19 09:21:53;;;;;;;4.47;4.03;;;;;;;31.92;30.09;94710.47;5052420;28;20473;-77
2023/07/19 09:24:19;;;;;;;6.65;4.80;;;;;;;32.38;29.10;94704.41;5069204;28;20074;-77
2023/07/19 09:26:57;;;;;;;7.90;4.70;;;;;;;32.26;29.65;94708.16;5069131;28;20041;-78
2023/07/19 09:29:22;;;;;;;5.22;4.68;;;;;;;32.39;29.04;94701.44;5052701;28;20490;-78
2023/07/19 09:31:56;;;;;;;8.35;4.90;;;;;;;32.30;29.42;94702.25;5069534;28;20050;-78
2023/07/19 09:34:29;;;;;;;6.03;4.50;;;;;;;32.38;29.74;94701.72;5072944;28;20032;-78
2023/07/19 09:36:54;;;;;;;6.88;4.90;;;;;;;32.15;30.13;94673.44;5074376;28;20091;-77
2023/07/19 09:39:20;;;;;;;20.70;5.07;;;;;;;32.36;30.16;94715.41;5056072;28;20502;-78
2023/07/19 09:41:46;;;;;;;11.57;5.57;;;;;;;32.11;30.52;94705.41;5072758;28;20407;-78
2023/07/19 09:44:13;;;;;;;7.28;5.22;;;;;;;32.21;30.63;94699.28;5055934;28;20032;-78
2023/07/19 09:46:38;;;;;;;7.80;5.10;;;;;;;32.40;30.63;94711.16;5056244;28;20033;-78
2023/07/19 09:49:04;;;;;;;8.07;5.38;;;;;;;32.51;30.88;94693.16;5072575;28;20029;-78
2023/07/19 09:51:30;;;;;;;7.43;5.30;;;;;;;32.60;30.54;94699.63;5072680;28;20056;-77
2023/07/19 09:53:55;;;;;;;8.73;5.90;;;;;;;32.45;31.32;94705.75;5072509;28;20024;-78
2023/07/19 09:56:21;;;;;;;11.18;5.93;;;;;;;32.59;30.45;94681.06;5073843;28;20029;-78
2023/07/19 09:58:46;;;;;;;10.70;5.63;;;;;;;32.61;30.14;94673.56;5055689;28;20020;-77
2023/07/19 10:01:12;;;;;;;9.57;6.15;;;;;;;32.73;30.38;94703.66;5072487;28;20048;-78
2023/07/19 10:03:38;;;;;;;9.15;5.72;;;;;;;32.47;30.86;94679.44;5072302;28;20055;-78
2023/07/19 10:06:03;;;;;;;10.13;6.03;;;;;;;32.02;31.63;94677.47;5072352;28;20042;-78
2023/07/19 10:08:29;;;;;;;7.38;5.95;;;;;;;31.99;31.66;94675.31;5073504;28;20027;-78
2023/07/19 10:11:00;;;;;;;10.10;7.55;;;;;;;32.09;32.49;94669.16;5072587;28;20036;-78
2023/07/19 10:13:50;;;;;;;8.55;6.95;;;;;;;32.18;31.99;94664.84;5072148;28;20021;-78
2023/07/19 10:16:33;;;;;;;7.00;5.45;;;;;;;32.48;30.54;94675.72;5055357;28;20129;-78
2023/07/19 10:19:12;;;;;;;9.93;5.97;;;;;;;32.17;30.78;94674.00;5072116;28;20435;-77
2023/07/19 10:21:38;;;;;;;7.75;5.35;;;;;;;32.29;30.66;94666.53;5072132;28;20101;-77
2023/07/19 10:24:09;;;;;;;6.70;5.82;;;;;;;32.43;31.61;94662.22;5071866;28;20498;-77
2023/07/19 10:26:37;;;;;;;7.43;6.53;;;;;;;32.41;30.53;94669.75;5055745;28;20054;-78
2023/07/19 10:29:03;;;;;;;9.38;6.13;;;;;;;32.65;29.54;94656.63;5071855;28;20020;-78
2023/07/19 10:31:29;;;;;;;6.30;5.68;;;;;;;32.58;29.31;94660.66;5071870;28;20529;-78
2023/07/19 10:33:54;;;;;;;8.68;5.55;;;;;;;32.73;28.18;94660.63;5055084;28;20032;-78
2023/07/19 10:36:20;;;;;;;6.97;5.63;;;;;;;32.69;28.43;94632.69;5071863;28;20043;-77
2023/07/19 10:38:45;;;;;;;6.45;5.50;;;;;;;32.86;28.84;94643.97;5071713;28;20024;-78
2023/07/19 10:41:12;;;;;;;7.68;5.82;;;;;;;32.92;28.83;94632.13;5071803;28;20490;-78
2023/07/19 10:43:37;;;;;;;9.65;6.13;;;;;;;32.77;30.64;94640.22;5070448;28;20028;-78
2023/07/19 10:46:04;;;;;;;9.25;5.93;;;;;;;32.90;30.47;94647.75;5054876;28;20036;-78
2023/07/19 10:48:32;;;;;;;10.48;6.15;;;;;;;33.11;29.44;94645.03;5071625;28;20032;-77
2023/07/19 10:51:01;;;;;;;11.10;6.20;;;;;;;33.27;29.52;94627.78;5054954;28;20053;-78
2023/07/19 10:53:27;;;;;;;9.75;6.10;;;;;;;33.25;29.50;94639.88;5071454;28;20525;-78
2023/07/19 10:55:56;;;;;;;10.07;6.10;;;;;;;33.37;29.94;94635.81;5038177;28;20028;-77
2023/07/19 10:58:22;;;;;;;;;;;;;;;33.33;29.62;94656.28;5055110;28;20025;-78
2023/07/19 11:00:48;;;;;;;9.30;6.13;;;;;;;33.25;30.07;94643.38;5071370;28;19962;-78
2023/07/19 11:03:14;;;;;;;8.75;6.25;;;;;;;33.35;30.01;94651.44;5054380;28;20289;-78
2023/07/19 11:05:46;;;;;;;8.77;5.88;;;;;;;33.59;28.63;94640.06;5071235;28;20094;-78
2023/07/19 11:08:28;;;;;;;9.15;5.85;;;;;;;33.23;28.44;94631.28;5054503;28;20016;-78
2023/07/19 11:10:55;;;;;;;7.68;5.82;;;;;;;33.32;28.32;94624.25;5071190;28;20032;-78
2023/07/19 11:13:22;;;;;;;6.38;5.70;;;;;;;33.37;27.37;94618.84;5071311;28;20029;-77
2023/07/19 11:15:48;;;;;;;6.72;5.40;;;;;;;33.73;27.30;94619.53;5054328;28;20082;-77
2023/07/19 11:18:23;;;;;;;9.50;5.68;;;;;;;33.60;27.61;94620.16;5070754;28;20421;-77
2023/07/19 11:20:48;;;;;;;6.93;5.47;;;;;;;33.45;27.05;94620.19;5054291;28;20021;-77
2023/07/19 11:23:14;;;;;;;6.50;4.95;;;;;;;33.65;27.86;94619.31;5054001;28;20515;-78
2023/07/19 11:25:39;;;;;;;8.93;5.28;;;;;;;33.64;25.40;94623.91;5071100;28;20094;-77